Time;durP1;ratioP1;P1;durP2;ratioP2;P2;SDS_P1;SDS_P2;PMS_P1;PMS_P2;Temp;Humidity;BMP_temperature;BMP_pressure;BME280_temperature;BME280_humidity;BME280_pressure;Samples;Min_cycle;Max_cycle;Signal;HPM_P1;HPM_P2
2023/07/04 00:01:28;;;;;;;;;;;;;;;;;;6204567;28;19980;-66
2023/07/04 00:04:29;;;;;;;;;;;;;;;;;;6206863;28;20012;-67
2023/07/04 00:07:31;;;;;;;;;;;;;;;;;;6207444;28;20091;-67
2023/07/04 00:10:31;;;;;;;;;;;;;;;;;;6204525;28;19971;-67
2023/07/04 00:13:32;;;;;;;;;;;;;;;;;;6215312;28;19917;-69
2023/07/04 00:16:32;;;;;;;;;;;;;;;;;;6214190;28;19917;-67
2023/07/04 00:19:32;;;;;;;;;;;;;;;;;;6208721;28;19917;-67
2023/07/04 00:22:33;;;;;;;;;;;;;;;;;;6211950;28;19913;-67
2023/07/04 00:25:33;;;;;;;;;;;;;;;;;;6214010;28;19914;-67
2023/07/04 00:28:33;;;;;;;;;;;;;;;;;;6215777;28;19983;-67
2023/07/04 00:31:34;;;;;;;;;;;;;;;;;;6213304;28;20012;-68
2023/07/04 00:34:34;;;;;;;;;;;;;;;;;;6209986;28;19917;-67
2023/07/04 00:37:35;;;;;;;;;;;;;;;;;;6215938;28;19921;-67
2023/07/04 00:40:35;;;;;;;;;;;;;;;;;;6219406;28;19917;-66
2023/07/04 00:43:38;;;;;;;;;;;;;;;;;;6209808;28;19956;-67
2023/07/04 00:46:39;;;;;;;;;;;;;;;;;;6203000;28;19920;-66
2023/07/04 00:49:43;;;;;;;;;;;;;;;;;;6196766;28;20004;-67
2023/07/04 00:52:44;;;;;;;;;;;;;;;;;;6204516;28;20337;-68
2023/07/04 00:55:44;;;;;;;;;;;;;;;;;;6207448;28;20097;-70
2023/07/04 00:58:45;;;;;;;;;;;;;;;;;;6201407;28;20378;-66
2023/07/04 01:01:46;;;;;;;;;;;;;;;;;;6201422;28;19914;-66
2023/07/04 01:04:46;;;;;;;;;;;;;;;;;;6205058;28;20770;-67
2023/07/04 01:07:47;;;;;;;;;;;;;;;;;;6206062;28;19960;-69
2023/07/04 01:10:47;;;;;;;;;;;;;;;;;;6203520;28;19921;-66
2023/07/04 01:13:47;;;;;;;;;;;;;;;;;;6205261;28;19917;-68
2023/07/04 01:16:47;;;;;;;;;;;;;;;;;;6201451;28;19972;-66
2023/07/04 01:19:47;;;;;;;;;;;;;;;;;;6199502;28;19918;-66
2023/07/04 01:22:47;;;;;;;;;;;;;;;;;;6208271;28;19976;-66
2023/07/04 01:25:48;;;;;;;;;;;;;;;;;;6213628;28;19964;-66
2023/07/04 01:28:51;;;;;;;;;;;;;;;;;;6208905;28;19930;-66
2023/07/04 01:31:51;;;;;;;;;;;;;;;;;;6211070;28;19920;-65
2023/07/04 01:34:52;;;;;;;;;;;;;;;;;;6214009;28;19917;-66
2023/07/04 01:37:52;;;;;;;;;;;;;;;;;;6209706;28;19932;-66
2023/07/04 01:40:53;;;;;;;;;;;;;;;;;;6218328;28;20381;-67
2023/07/04 01:43:53;;;;;;;;;;;;;;;;;;6219900;28;19953;-66
2023/07/04 01:46:53;;;;;;;;;;;;;;;;;;6219004;28;19914;-66
2023/07/04 01:49:54;;;;;;;;;;;;;;;;;;6219334;28;20331;-67
2023/07/04 01:52:54;;;;;;;;;;;;;;;;;;6220862;28;20267;-66
2023/07/04 01:55:54;;;;;;;;;;;;;;;;;;6219608;28;20334;-67
2023/07/04 01:58:55;;;;;;;;;;;;;;;;;;6207478;28;19913;-67
2023/07/04 02:01:55;;;;;;;;;;;;;;;;;;6218069;28;19952;-66
2023/07/04 02:04:55;;;;;;;;;;;;;;;;;;6216731;28;19969;-67
2023/07/04 02:07:55;;;;;;;;;;;;;;;;;;6220454;28;19913;-67
2023/07/04 02:10:55;;;;;;;;;;;;;;;;;;6207080;28;20351;-69
2023/07/04 02:13:55;;;;;;;;;;;;;;;;;;6208494;28;20425;-68
2023/07/04 02:16:55;;;;;;;;;;;;;;;;;;6209369;28;20290;-67
2023/07/04 02:19:56;;;;;;;;;;;;;;;;;;6201927;28;19917;-68
2023/07/04 02:22:56;;;;;;;;;;;;;;;;;;6206155;28;19924;-68
2023/07/04 02:25:56;;;;;;;;;;;;;;;;;;6210696;28;19924;-68
2023/07/04 02:28:56;;;;;;;;;;;;;;;;;;6206851;28;19913;-68
2023/07/04 02:31:56;;;;;;;;;;;;;;;;;;6207975;28;20018;-64
2023/07/04 02:34:56;;;;;;;;;;;;;;;;;;6212673;28;20396;-68
2023/07/04 02:37:56;;;;;;;;;;;;;;;;;;6208301;28;19956;-67
2023/07/04 02:40:56;;;;;;;;;;;;;;;;;;6207604;28;19917;-67
2023/07/04 02:43:56;;;;;;;;;;;;;;;;;;6209307;28;20043;-67
2023/07/04 02:46:57;;;;;;;;;;;;;;;;;;6204936;28;19921;-65
2023/07/04 02:49:57;;;;;;;;;;;;;;;;;;6204036;28;19956;-66
2023/07/04 02:52:57;;;;;;;;;;;;;;;;;;6202327;28;20390;-70
2023/07/04 02:55:58;;;;;;;;;;;;;;;;;;6205946;28;20378;-67
2023/07/04 02:58:58;;;;;;;;;;;;;;;;;;6213793;28;19929;-68
2023/07/04 03:01:58;;;;;;;;;;;;;;;;;;6213708;28;19918;-68
2023/07/04 03:04:58;;;;;;;;;;;;;;;;;;6214695;28;19914;-67
2023/07/04 03:07:58;;;;;;;;;;;;;;;;;;6210514;28;19918;-66
2023/07/04 03:10:58;;;;;;;;;;;;;;;;;;6208421;28;19914;-66
2023/07/04 03:13:58;;;;;;;;;;;;;;;;;;6204444;28;19925;-66
2023/07/04 03:16:59;;;;;;;;;;;;;;;;;;6206341;28;19977;-68
2023/07/04 03:19:59;;;;;;;;;;;;;;;;;;6203770;28;19968;-68
2023/07/04 03:22:59;;;;;;;;;;;;;;;;;;6208411;28;20009;-68
2023/07/04 03:25:59;;;;;;;;;;;;;;;;;;6205997;28;19917;-68
2023/07/04 03:28:59;;;;;;;;;;;;;;;;;;6215980;28;20435;-67
2023/07/04 03:31:59;;;;;;;;;;;;;;;;;;6211599;28;19932;-67
2023/07/04 03:35:02;;;;;;;;;;;;;;;;;;6212737;28;19918;-69
2023/07/04 03:38:02;;;;;;;;;;;;;;;;;;6211514;28;20009;-66
2023/07/04 03:41:02;;;;;;;;;;;;;;;;;;6202208;28;19928;-69
2023/07/04 03:44:02;;;;;;;;;;;;;;;;;;6203565;28;19913;-69
2023/07/04 03:47:05;;;;;;;;;;;;;;;;;;6205912;28;21363;-69
2023/07/04 03:50:06;;;;;;;;;;;;;;;;;;6202615;28;19918;-69
2023/07/04 03:53:06;;;;;;;;;;;;;;;;;;6204353;28;20000;-69
2023/07/04 03:56:06;;;;;;;;;;;;;;;;;;6203275;28;19918;-69
2023/07/04 03:59:06;;;;;;;;;;;;;;;;;;6200181;28;19929;-69
2023/07/04 04:02:06;;;;;;;;;;;;;;;;;;6210197;28;19936;-70
2023/07/04 04:05:06;;;;;;;;;;;;;;;;;;6206964;28;20378;-70
2023/07/04 04:08:06;;;;;;;;;;;;;;;;;;6208729;28;19913;-71
2023/07/04 04:11:06;;;;;;;;;;;;;;;;;;6205855;28;19928;-70
2023/07/04 04:14:07;;;;;;;;;;;;;;;;;;6201797;28;19918;-69
2023/07/04 04:17:07;;;;;;;;;;;;;;;;;;6205097;28;19924;-70
2023/07/04 04:20:07;;;;;;;;;;;;;;;;;;6201236;28;20060;-69
2023/07/04 04:23:07;;;;;;;;;;;;;;;;;;6206322;28;20374;-69
2023/07/04 04:26:07;;;;;;;;;;;;;;;;;;6205323;28;20040;-70
2023/07/04 04:29:08;;;;;;;;;;;;;;;;;;6201239;28;20547;-68
2023/07/04 04:32:08;;;;;;;;;;;;;;;;;;6207227;28;19990;-69
2023/07/04 04:35:08;;;;;;;;;;;;;;;;;;6206248;28;19925;-68
2023/07/04 04:38:10;;;;;;;;;;;;;;;;;;6201288;28;20228;-67
2023/07/04 04:41:10;;;;;;;;;;;;;;;;;;6203443;28;20007;-69
2023/07/04 04:44:10;;;;;;;;;;;;;;;;;;6204223;28;20234;-70
2023/07/04 04:47:12;;;;;;;;;;;;;;;;;;6205168;28;20436;-69
2023/07/04 04:50:12;;;;;;;;;;;;;;;;;;6203817;28;21936;-71
2023/07/04 04:53:14;;;;;;;;;;;;;;;;;;6200369;28;20391;-68
2023/07/04 04:56:14;;;;;;;;;;;;;;;;;;6210437;28;19924;-69
2023/07/04 04:59:14;;;;;;;;;;;;;;;;;;6211570;28;19913;-71
2023/07/04 05:02:15;;;;;;;;;;;;;;;;;;6216836;28;19975;-68
2023/07/04 05:05:15;;;;;;;;;;;;;;;;;;6223704;28;19987;-70
2023/07/04 05:08:15;;;;;;;;;;;;;;;;;;6230900;28;20020;-69
2023/07/04 05:11:15;;;;;;;;;;;;;;;;;;6213412;28;19924;-70
2023/07/04 05:14:15;;;;;;;;;;;;;;;;;;6208958;28;20952;-72
2023/07/04 05:17:16;;;;;;;;;;;;;;;;;;6208035;28;19921;-70
2023/07/04 05:20:22;;;;;;;;;;;;;;;;;;6211015;28;20008;-68
2023/07/04 05:23:23;;;;;;;;;;;;;;;;;;6208141;28;19923;-68
2023/07/04 05:26:23;;;;;;;;;;;;;;;;;;6205582;28;20028;-69
2023/07/04 05:29:23;;;;;;;;;;;;;;;;;;6206966;28;19921;-70
2023/07/04 05:32:23;;;;;;;;;;;;;;;;;;6209554;28;19921;-73
2023/07/04 05:35:23;;;;;;;;;;;;;;;;;;6207641;28;19929;-71
2023/07/04 05:38:23;;;;;;;;;;;;;;;;;;6208819;28;19952;-71
2023/07/04 05:41:25;;;;;;;;;;;;;;;;;;6209935;28;19922;-70
2023/07/04 05:44:25;;;;;;;;;;;;;;;;;;6207571;28;19917;-69
2023/07/04 05:47:25;;;;;;;;;;;;;;;;;;6217248;28;19914;-70
2023/07/04 05:50:25;;;;;;;;;;;;;;;;;;6215393;28;20350;-70
2023/07/04 05:53:25;;;;;;;;;;;;;;;;;;6205361;28;20001;-69
2023/07/04 05:56:25;;;;;;;;;;;;;;;;;;6210700;28;19925;-70
2023/07/04 05:59:26;;;;;;;;;;;;;;;;;;6220598;28;19983;-69
2023/07/04 06:02:26;;;;;;;;;;;;;;;;;;6208841;28;19918;-69
2023/07/04 06:05:26;;;;;;;;;;;;;;;;;;5853758;28;10000431;-71
2023/07/04 06:08:26;;;;;;;;;;;;;;;;;;6218029;28;19917;-69
2023/07/04 06:11:29;;;;;;;;;;;;;;;;;;6213100;28;19913;-69
2023/07/04 06:14:30;;;;;;;;;;;;;;;;;;6206539;28;19941;-69
2023/07/04 06:17:30;;;;;;;;;;;;;;;;;;6222180;28;19932;-70
2023/07/04 06:20:30;;;;;;;;;;;;;;;;;;6206892;28;19929;-68
2023/07/04 06:23:30;;;;;;;;;;;;;;;;;;6212329;28;19947;-71
2023/07/04 06:26:32;;;;;;;;;;;;;;;;;;6212391;28;19924;-68
2023/07/04 06:29:32;;;;;;;;;;;;;;;;;;6203022;28;20013;-70
2023/07/04 06:32:33;;;;;;;;;;;;;;;;;;6199714;28;19937;-69
2023/07/04 06:35:33;;;;;;;;;;;;;;;;;;6217586;28;19922;-70
2023/07/04 06:38:33;;;;;;;;;;;;;;;;;;6216664;28;19925;-71
2023/07/04 06:41:33;;;;;;;;;;;;;;;;;;6207569;28;20345;-70
2023/07/04 06:44:33;;;;;;;;;;;;;;;;;;6215838;28;19918;-72
2023/07/04 06:47:33;;;;;;;;;;;;;;;;;;6216733;28;19924;-71
2023/07/04 06:50:33;;;;;;;;;;;;;;;;;;6217248;28;19913;-71
2023/07/04 06:53:34;;;;;;;;;;;;;;;;;;6210834;28;19952;-70
2023/07/04 06:56:36;;;;;;;;;;;;;;;;;;6213673;28;20386;-69
2023/07/04 06:59:37;;;;;;;;;;;;;;;;;;6217188;28;20385;-71
2023/07/04 07:02:37;;;;;;;;;;;;;;;;;;6203218;28;19910;-71
2023/07/04 07:05:37;;;;;;;;;;;;;;;;;;6205900;28;19920;-71
2023/07/04 07:08:37;;;;;;;;;;;;;;;;;;6204528;28;20001;-69
2023/07/04 07:11:37;;;;;;;;;;;;;;;;;;6205267;28;20392;-69
2023/07/04 07:14:37;;;;;;;;;;;;;;;;;;6211787;28;19980;-70
2023/07/04 07:17:38;;;;;;;;;;;;;;;;;;6214384;28;19921;-71
2023/07/04 07:20:38;;;;;;;;;;;;;;;;;;6209228;28;19955;-72
2023/07/04 07:23:38;;;;;;;;;;;;;;;;;;6214008;28;19917;-72
2023/07/04 07:26:38;;;;;;;;;;;;;;;;;;6210252;28;19919;-72
2023/07/04 07:29:39;;;;;;;;;;;;;;;;;;6203330;28;20283;-72
2023/07/04 07:32:39;;;;;;;;;;;;;;;;;;6198936;28;19913;-71
2023/07/04 07:35:39;;;;;;;;;;;;;;;;;;6210981;28;19917;-71
2023/07/04 07:38:39;;;;;;;;;;;;;;;;;;6207930;28;20390;-72
2023/07/04 07:41:39;;;;;;;;;;;;;;;;;;6207225;28;19924;-71
2023/07/04 07:44:40;;;;;;;;;;;;;;;;;;6201984;28;19945;-70
2023/07/04 07:47:40;;;;;;;;;;;;;;;;;;6214082;28;19917;-71
2023/07/04 07:50:40;;;;;;;;;;;;;;;;;;6212016;28;19996;-72
2023/07/04 07:53:40;;;;;;;;;;;;;;;;;;6203734;28;19924;-71
2023/07/04 07:56:40;;;;;;;;;;;;;;;;;;6211360;28;19913;-72
2023/07/04 07:59:40;;;;;;;;;;;;;;;;;;6206983;28;20342;-70
2023/07/04 08:02:40;;;;;;;;;;;;;;;;;;6208987;28;19913;-72
2023/07/04 08:05:41;;;;;;;;;;;;;;;;;;6202230;28;19925;-71
2023/07/04 08:08:41;;;;;;;;;;;;;;;;;;6214553;28;19929;-71
2023/07/04 08:11:41;;;;;;;;;;;;;;;;;;6209020;28;19932;-73
2023/07/04 08:14:41;;;;;;;;;;;;;;;;;;6224861;28;19909;-72
2023/07/04 08:17:41;;;;;;;;;;;;;;;;;;6200977;28;19917;-73
2023/07/04 08:20:41;;;;;;;;;;;;;;;;;;6198907;28;20355;-72
2023/07/04 08:23:41;;;;;;;;;;;;;;;;;;6207338;28;19917;-71
2023/07/04 08:26:42;;;;;;;;;;;;;;;;;;6206348;28;19914;-73
2023/07/04 08:29:42;;;;;;;;;;;;;;;;;;6195832;28;19914;-72
2023/07/04 08:32:42;;;;;;;;;;;;;;;;;;6214949;28;20318;-71
2023/07/04 08:35:42;;;;;;;;;;;;;;;;;;6197349;28;19968;-71
2023/07/04 08:38:42;;;;;;;;;;;;;;;;;;6207054;28;20420;-71
2023/07/04 08:41:42;;;;;;;;;;;;;;;;;;6214971;28;19939;-71
2023/07/04 08:44:42;;;;;;;;;;;;;;;;;;6212372;28;19925;-69
2023/07/04 08:47:43;;;;;;;;;;;;;;;;;;6206902;28;19918;-71
2023/07/04 08:50:43;;;;;;;;;;;;;;;;;;6205076;28;20367;-71
2023/07/04 08:53:43;;;;;;;;;;;;;;;;;;6206162;28;19936;-70
2023/07/04 08:56:43;;;;;;;;;;;;;;;;;;6206396;28;19947;-70
2023/07/04 08:59:44;;;;;;;;;;;;;;;;;;6199592;28;19964;-69
2023/07/04 09:02:44;;;;;;;;;;;;;;;;;;6208042;28;19914;-69
2023/07/04 09:05:44;;;;;;;;;;;;;;;;;;6207162;28;19909;-69
2023/07/04 09:08:45;;;;;;;;;;;;;;;;;;6208563;28;19913;-68
2023/07/04 09:11:45;;;;;;;;;;;;;;;;;;6212747;28;19921;-69
2023/07/04 09:14:45;;;;;;;;;;;;;;;;;;6200036;28;19920;-69
2023/07/04 09:17:45;;;;;;;;;;;;;;;;;;6216431;28;19917;-71
2023/07/04 09:20:45;;;;;;;;;;;;;;;;;;6216037;28;19944;-70
2023/07/04 09:23:45;;;;;;;;;;;;;;;;;;6220467;28;20135;-70
2023/07/04 09:26:45;;;;;;;;;;;;;;;;;;6212058;28;19940;-70
2023/07/04 09:29:46;;;;;;;;;;;;;;;;;;6217172;28;19927;-70
2023/07/04 09:32:46;;;;;;;;;;;;;;;;;;6215575;28;19922;-70
2023/07/04 09:35:46;;;;;;;;;;;;;;;;;;6211957;28;19932;-70
2023/07/04 09:38:46;;;;;;;;;;;;;;;;;;6205903;28;20383;-70
2023/07/04 09:41:46;;;;;;;;;;;;;;;;;;6203413;28;19910;-71
2023/07/04 09:44:46;;;;;;;;;;;;;;;;;;6213206;28;20386;-71
2023/07/04 09:47:47;;;;;;;;;;;;;;;;;;6211412;28;20132;-71
2023/07/04 09:50:47;;;;;;;;;;;;;;;;;;6216579;28;19913;-69
2023/07/04 09:53:47;;;;;;;;;;;;;;;;;;6205566;28;19914;-72
2023/07/04 09:56:47;;;;;;;;;;;;;;;;;;6223757;28;19921;-71
2023/07/04 09:59:47;;;;;;;;;;;;;;;;;;6229731;28;19964;-71
2023/07/04 10:02:47;;;;;;;;;;;;;;;;;;6222225;28;19917;-71
2023/07/04 10:05:47;;;;;;;;;;;;;;;;;;6211885;28;19928;-71
2023/07/04 10:08:48;;;;;;;;;;;;;;;;;;6216739;28;19914;-71
2023/07/04 10:11:48;;;;;;;;;;;;;;;;;;6214845;28;19913;-71
2023/07/04 10:14:48;;;;;;;;;;;;;;;;;;6207715;28;19944;-71
2023/07/04 10:17:48;;;;;;;;;;;;;;;;;;5863254;28;10000332;-70
2023/07/04 10:20:48;;;;;;;;;;;;;;;;;;6208597;28;19981;-72
2023/07/04 10:23:48;;;;;;;;;;;;;;;;;;6225646;28;19968;-71
2023/07/04 10:26:49;;;;;;;;;;;;;;;;;;6227153;28;19917;-72
2023/07/04 10:29:49;;;;;;;;;;;;;;;;;;6213051;28;19910;-71
2023/07/04 10:32:49;;;;;;;;;;;;;;;;;;6212145;28;19914;-72
2023/07/04 10:35:49;;;;;;;;;;;;;;;;;;6218567;28;19918;-72
2023/07/04 10:38:49;;;;;;;;;;;;;;;;;;6211997;28;20284;-73
2023/07/04 10:41:49;;;;;;;;;;;;;;;;;;6212207;28;19969;-72
2023/07/04 10:44:50;;;;;;;;;;;;;;;;;;6213261;28;19914;-71
2023/07/04 10:47:51;;;;;;;;;;;;;;;;;;6206498;28;19909;-72
2023/07/04 10:50:51;;;;;;;;;;;;;;;;;;6205233;28;20342;-72
2023/07/04 10:53:51;;;;;;;;;;;;;;;;;;6202295;28;19913;-71
2023/07/04 10:56:51;;;;;;;;;;;;;;;;;;6208926;28;19917;-70
2023/07/04 10:59:52;;;;;;;;;;;;;;;;;;6205517;28;20263;-72
2023/07/04 11:02:52;;;;;;;;;;;;;;;;;;6202608;28;20375;-71
2023/07/04 11:05:52;;;;;;;;;;;;;;;;;;6212923;28;19910;-72
2023/07/04 11:08:52;;;;;;;;;;;;;;;;;;6212654;28;19914;-72
2023/07/04 11:11:52;;;;;;;;;;;;;;;;;;6204722;28;20329;-72
2023/07/04 11:14:52;;;;;;;;;;;;;;;;;;6215128;28;19924;-71
2023/07/04 11:17:53;;;;;;;;;;;;;;;;;;6204453;28;20319;-72
2023/07/04 11:20:54;;;;;;;;;;;;;;;;;;6203737;28;19914;-71
2023/07/04 11:23:54;;;;;;;;;;;;;;;;;;6217706;28;19936;-72
2023/07/04 11:26:54;;;;;;;;;;;;;;;;;;6218743;28;19940;-73
2023/07/04 11:29:54;;;;;;;;;;;;;;;;;;6218689;28;19937;-72
2023/07/04 11:32:54;;;;;;;;;;;;;;;;;;6215153;28;19920;-71
2023/07/04 11:35:54;;;;;;;;;;;;;;;;;;6209853;28;19925;-73
2023/07/04 11:38:55;;;;;;;;;;;;;;;;;;6203658;28;19909;-72
2023/07/04 11:41:55;;;;;;;;;;;;;;;;;;6215677;28;19916;-72
2023/07/04 11:44:56;;;;;;;;;;;;;;;;;;6215500;28;19922;-72
2023/07/04 11:47:56;;;;;;;;;;;;;;;;;;6207574;28;20282;-72
2023/07/04 11:50:56;;;;;;;;;;;;;;;;;;6215569;28;19914;-70
2023/07/04 11:53:57;;;;;;;;;;;;;;;;;;6208460;28;20082;-71
2023/07/04 11:56:57;;;;;;;;;;;;;;;;;;6203393;28;20266;-68
2023/07/04 11:59:58;;;;;;;;;;;;;;;;;;6204043;28;19955;-71
2023/07/04 12:02:59;;;;;;;;;;;;;;;;;;6206647;28;19928;-71
2023/07/04 12:05:59;;;;;;;;;;;;;;;;;;6232995;28;19914;-71
2023/07/04 12:08:59;;;;;;;;;;;;;;;;;;6201287;28;20016;-71
2023/07/04 12:11:59;;;;;;;;;;;;;;;;;;6196928;28;19913;-71
2023/07/04 12:14:59;;;;;;;;;;;;;;;;;;6217743;28;19963;-71
2023/07/04 12:18:00;;;;;;;;;;;;;;;;;;6208119;28;19918;-71
2023/07/04 12:21:00;;;;;;;;;;;;;;;;;;6215118;28;19957;-71
2023/07/04 12:24:00;;;;;;;;;;;;;;;;;;6211781;28;20430;-71
2023/07/04 12:27:00;;;;;;;;;;;;;;;;;;6216934;28;20412;-72
2023/07/04 12:30:00;;;;;;;;;;;;;;;;;;6208687;28;19956;-70
2023/07/04 12:33:00;;;;;;;;;;;;;;;;;;6200763;28;19918;-70
2023/07/04 12:36:01;;;;;;;;;;;;;;;;;;6209917;28;20433;-71
2023/07/04 12:39:03;;;;;;;;;;;;;;;;;;6211648;28;19957;-71
2023/07/04 12:42:03;;;;;;;;;;;;;;;;;;6202217;28;20015;-69
2023/07/04 12:45:03;;;;;;;;;;;;;;;;;;6208464;28;19925;-71
2023/07/04 12:48:03;;;;;;;;;;;;;;;;;;6215643;28;20397;-71
2023/07/04 12:51:03;;;;;;;;;;;;;;;;;;6217416;28;19917;-70
2023/07/04 12:54:03;;;;;;;;;;;;;;;;;;6210484;28;19982;-71
2023/07/04 12:57:03;;;;;;;;;;;;;;;;;;6212347;28;19922;-71
2023/07/04 13:00:04;;;;;;;;;;;;;;;;;;6208353;28;19918;-71
2023/07/04 13:03:04;;;;;;;;;;;;;;;;;;6205744;28;19921;-71
2023/07/04 13:06:04;;;;;;;;;;;;;;;;;;6207063;28;19924;-72
2023/07/04 13:09:05;;;;;;;;;;;;;;;;;;6212129;28;20442;-70
2023/07/04 13:12:05;;;;;;;;;;;;;;;;;;6215447;28;19940;-72
2023/07/04 13:15:05;;;;;;;;;;;;;;;;;;6208222;28;19943;-72
2023/07/04 13:18:05;;;;;;;;;;;;;;;;;;6219858;28;19925;-73
2023/07/04 13:21:06;;;;;;;;;;;;;;;;;;6216099;28;19913;-71
2023/07/04 13:24:06;;;;;;;;;;;;;;;;;;6215126;28;19917;-71
2023/07/04 13:27:06;;;;;;;;;;;;;;;;;;6216573;28;19924;-70
2023/07/04 13:30:06;;;;;;;;;;;;;;;;;;6213620;28;19940;-71
2023/07/04 13:33:06;;;;;;;;;;;;;;;;;;6213848;28;19921;-70
2023/07/04 13:36:07;;;;;;;;;;;;;;;;;;6221992;28;20232;-71
2023/07/04 13:39:07;;;;;;;;;;;;;;;;;;6217858;28;19936;-72
2023/07/04 13:42:07;;;;;;;;;;;;;;;;;;6212801;28;20394;-71
2023/07/04 13:45:07;;;;;;;;;;;;;;;;;;6202589;28;20378;-72
2023/07/04 13:48:07;;;;;;;;;;;;;;;;;;6214716;28;19924;-71
2023/07/04 13:51:07;;;;;;;;;;;;;;;;;;6212529;28;19909;-72
2023/07/04 13:54:07;;;;;;;;;;;;;;;;;;6215468;28;19917;-72
2023/07/04 13:57:08;;;;;;;;;;;;;;;;;;6213716;28;19913;-72
2023/07/04 14:00:08;;;;;;;;;;;;;;;;;;6214482;28;19956;-73
2023/07/04 14:03:08;;;;;;;;;;;;;;;;;;6201448;28;19964;-71
2023/07/04 14:06:08;;;;;;;;;;;;;;;;;;6210915;28;20333;-70
2023/07/04 14:09:08;;;;;;;;;;;;;;;;;;6214890;28;19964;-70
2023/07/04 14:12:09;;;;;;;;;;;;;;;;;;6206044;28;19914;-72
2023/07/04 14:15:09;;;;;;;;;;;;;;;;;;6217105;28;20294;-70
2023/07/04 14:18:09;;;;;;;;;;;;;;;;;;6219516;28;19928;-70
2023/07/04 14:21:09;;;;;;;;;;;;;;;;;;6211837;28;19922;-70
2023/07/04 14:24:10;;;;;;;;;;;;;;;;;;6209281;28;20365;-72
2023/07/04 14:27:10;;;;;;;;;;;;;;;;;;6217458;28;19917;-73
2023/07/04 14:30:10;;;;;;;;;;;;;;;;;;6206163;28;19927;-72
2023/07/04 14:33:10;;;;;;;;;;;;;;;;;;6213109;28;19917;-71
2023/07/04 14:36:10;;;;;;;;;;;;;;;;;;6216824;28;19929;-71
2023/07/04 14:39:10;;;;;;;;;;;;;;;;;;6204668;28;19929;-72
2023/07/04 14:42:13;;;;;;;;;;;;;;;;;;6213175;28;20278;-71
2023/07/04 14:45:13;;;;;;;;;;;;;;;;;;6218980;28;19914;-71
2023/07/04 14:48:14;;;;;;;;;;;;;;;;;;6213495;28;19909;-71
2023/07/04 14:51:14;;;;;;;;;;;;;;;;;;6212281;28;20486;-73
2023/07/04 14:54:15;;;;;;;;;;;;;;;;;;6205032;28;19959;-72
2023/07/04 14:57:15;;;;;;;;;;;;;;;;;;6203662;28;19920;-71
2023/07/04 15:00:15;;;;;;;;;;;;;;;;;;6225622;28;19917;-72
2023/07/04 15:03:15;;;;;;;;;;;;;;;;;;6210645;28;20381;-71
2023/07/04 15:06:16;;;;;;;;;;;;;;;;;;6216002;28;19987;-72
2023/07/04 15:09:16;;;;;;;;;;;;;;;;;;6212639;28;19922;-72
2023/07/04 15:12:16;;;;;;;;;;;;;;;;;;6219755;28;20333;-72
2023/07/04 15:15:16;;;;;;;;;;;;;;;;;;6217138;28;19922;-72
2023/07/04 15:18:16;;;;;;;;;;;;;;;;;;6211191;28;19995;-72
2023/07/04 15:21:17;;;;;;;;;;;;;;;;;;6203365;28;20024;-71
2023/07/04 15:24:17;;;;;;;;;;;;;;;;;;6204370;28;19924;-72
2023/07/04 15:27:17;;;;;;;;;;;;;;;;;;6209326;28;20309;-71
2023/07/04 15:30:17;;;;;;;;;;;;;;;;;;6206403;28;19914;-72
2023/07/04 15:33:17;;;;;;;;;;;;;;;;;;6209138;28;19925;-72
2023/07/04 15:36:17;;;;;;;;;;;;;;;;;;6212657;28;19929;-72
2023/07/04 15:39:17;;;;;;;;;;;;;;;;;;6205414;28;19925;-73
2023/07/04 15:42:17;;;;;;;;;;;;;;;;;;6202536;28;19917;-71
2023/07/04 15:45:18;;;;;;;;;;;;;;;;;;6203655;28;20292;-71
2023/07/04 15:48:18;;;;;;;;;;;;;;;;;;6204142;28;19913;-70
2023/07/04 15:51:18;;;;;;;;;;;;;;;;;;6202379;28;19957;-71
2023/07/04 15:54:18;;;;;;;;;;;;;;;;;;6201864;28;19925;-71
2023/07/04 15:57:18;;;;;;;;;;;;;;;;;;6203083;28;20340;-68
2023/07/04 16:00:19;;;;;;;;;;;;;;;;;;6198356;28;20409;-69
2023/07/04 16:03:19;;;;;;;;;;;;;;;;;;6198892;28;19964;-70
2023/07/04 16:06:19;;;;;;;;;;;;;;;;;;6200053;28;19918;-70
2023/07/04 16:09:19;;;;;;;;;;;;;;;;;;6199445;28;19921;-68
2023/07/04 16:12:19;;;;;;;;;;;;;;;;;;6200092;28;20024;-68
2023/07/04 16:15:19;;;;;;;;;;;;;;;;;;6198411;28;19952;-70
2023/07/04 16:18:20;;;;;;;;;;;;;;;;;;6206608;28;20424;-69
2023/07/04 16:21:21;;;;;;;;;;;;;;;;;;6209354;28;19918;-70
2023/07/04 16:24:21;;;;;;;;;;;;;;;;;;6208155;28;20428;-70
2023/07/04 16:27:21;;;;;;;;;;;;;;;;;;6206296;28;19913;-69
2023/07/04 16:30:21;;;;;;;;;;;;;;;;;;6204471;28;19913;-70
2023/07/04 16:33:21;;;;;;;;;;;;;;;;;;6210690;28;19921;-70
2023/07/04 16:36:21;;;;;;;;;;;;;;;;;;6205760;28;19924;-71
2023/07/04 16:39:21;;;;;;;;;;;;;;;;;;6215255;28;19909;-70
2023/07/04 16:42:21;;;;;;;;;;;;;;;;;;6206430;28;20328;-69
2023/07/04 16:45:22;;;;;;;;;;;;;;;;;;6203796;28;20377;-68
2023/07/04 16:48:22;;;;;;;;;;;;;;;;;;6202207;28;19921;-70
2023/07/04 16:51:22;;;;;;;;;;;;;;;;;;6202630;28;19918;-68
2023/07/04 16:54:22;;;;;;;;;;;;;;;;;;6207778;28;20345;-71
2023/07/04 16:57:22;;;;;;;;;;;;;;;;;;6205439;28;19918;-71
2023/07/04 17:00:22;;;;;;;;;;;;;;;;;;6207788;28;19932;-70
2023/07/04 17:03:22;;;;;;;;;;;;;;;;;;6208209;28;19921;-70
2023/07/04 17:06:23;;;;;;;;;;;;;;;;;;6194731;28;19944;-69
2023/07/04 17:09:23;;;;;;;;;;;;;;;;;;6187515;28;20008;-70
2023/07/04 17:12:23;;;;;;;;;;;;;;;;;;6198709;28;20410;-71
2023/07/04 17:15:23;;;;;;;;;;;;;;;;;;6199490;28;19922;-70
2023/07/04 17:18:23;;;;;;;;;;;;;;;;;;6201386;28;20526;-70
2023/07/04 17:21:23;;;;;;;;;;;;;;;;;;6205759;28;19921;-70
2023/07/04 17:24:24;;;;;;;;;;;;;;;;;;6200924;28;20354;-70
2023/07/04 17:27:24;;;;;;;;;;;;;;;;;;6202069;28;19944;-69
2023/07/04 17:30:24;;;;;;;;;;;;;;;;;;6198206;28;20363;-70
2023/07/04 17:33:24;;;;;;;;;;;;;;;;;;6204150;28;20012;-70
2023/07/04 17:36:24;;;;;;;;;;;;;;;;;;6198881;28;19972;-70
2023/07/04 17:39:24;;;;;;;;;;;;;;;;;;6200911;28;20382;-70
2023/07/04 17:42:24;;;;;;;;;;;;;;;;;;6198503;28;20592;-68
2023/07/04 17:45:24;;;;;;;;;;;;;;;;;;6208324;28;19936;-68
2023/07/04 17:48:25;;;;;;;;;;;;;;;;;;6210513;28;19921;-70
2023/07/04 17:51:25;;;;;;;;;;;;;;;;;;6211793;28;20009;-68
2023/07/04 17:54:25;;;;;;;;;;;;;;;;;;6209670;28;20277;-72
2023/07/04 17:57:25;;;;;;;;;;;;;;;;;;6209402;28;19924;-71
2023/07/04 18:00:25;;;;;;;;;;;;;;;;;;6204988;28;20031;-71
2023/07/04 18:03:26;;;;;;;;;;;;;;;;;;6206117;28;19913;-70
2023/07/04 18:06:26;;;;;;;;;;;;;;;;;;6217352;28;20367;-69
2023/07/04 18:09:26;;;;;;;;;;;;;;;;;;6208653;28;20023;-69
2023/07/04 18:12:26;;;;;;;;;;;;;;;;;;6210815;28;19936;-69
2023/07/04 18:15:26;;;;;;;;;;;;;;;;;;6210867;28;20278;-71
2023/07/04 18:18:26;;;;;;;;;;;;;;;;;;6209556;28;20374;-69
2023/07/04 18:21:26;;;;;;;;;;;;;;;;;;6217255;28;19928;-69
2023/07/04 18:24:27;;;;;;;;;;;;;;;;;;6205050;28;19917;-71
2023/07/04 18:27:27;;;;;;;;;;;;;;;;;;6212880;28;20293;-68
2023/07/04 18:30:27;;;;;;;;;;;;;;;;;;6211643;28;19936;-72
2023/07/04 18:33:27;;;;;;;;;;;;;;;;;;6215587;28;19921;-70
2023/07/04 18:36:27;;;;;;;;;;;;;;;;;;6209869;28;19932;-67
2023/07/04 18:39:28;;;;;;;;;;;;;;;;;;6204559;28;19918;-69
2023/07/04 18:42:28;;;;;;;;;;;;;;;;;;6204647;28;20017;-67
2023/07/04 18:45:28;;;;;;;;;;;;;;;;;;6214692;28;19925;-68
2023/07/04 18:48:28;;;;;;;;;;;;;;;;;;6210827;28;19909;-68
2023/07/04 18:51:28;;;;;;;;;;;;;;;;;;6213923;28;19917;-67
2023/07/04 18:54:30;;;;;;;;;;;;;;;;;;6211400;28;19921;-68
2023/07/04 18:57:31;;;;;;;;;;;;;;;;;;6208262;28;19928;-71
2023/07/04 19:00:31;;;;;;;;;;;;;;;;;;6215195;28;19917;-70
2023/07/04 19:03:31;;;;;;;;;;;;;;;;;;6211056;28;19917;-69
2023/07/04 19:06:31;;;;;;;;;;;;;;;;;;6213860;28;19929;-68
2023/07/04 19:09:31;;;;;;;;;;;;;;;;;;6209507;28;20405;-67
2023/07/04 19:12:31;;;;;;;;;;;;;;;;;;6209653;28;19917;-67
2023/07/04 19:15:31;;;;;;;;;;;;;;;;;;6210132;28;19913;-69
2023/07/04 19:18:32;;;;;;;;;;;;;;;;;;6210451;28;20016;-68
2023/07/04 19:21:33;;;;;;;;;;;;;;;;;;6213712;28;20377;-67
2023/07/04 19:24:33;;;;;;;;;;;;;;;;;;6211381;28;19913;-69
2023/07/04 19:27:33;;;;;;;;;;;;;;;;;;6204124;28;20032;-69
2023/07/04 19:30:35;;;;;;;;;;;;;;;;;;6196527;28;20004;-66
2023/07/04 19:33:35;;;;;;;;;;;;;;;;;;6198578;28;20059;-68
2023/07/04 19:36:36;;;;;;;;;;;;;;;;;;6207072;28;20271;-68
2023/07/04 19:39:37;;;;;;;;;;;;;;;;;;6201670;28;20373;-68
2023/07/04 19:42:37;;;;;;;;;;;;;;;;;;6203882;28;20396;-68
2023/07/04 19:45:37;;;;;;;;;;;;;;;;;;6202664;28;20484;-68
2023/07/04 19:48:37;;;;;;;;;;;;;;;;;;6206006;28;20188;-69
2023/07/04 19:51:37;;;;;;;;;;;;;;;;;;6206710;28;19921;-70
2023/07/04 19:54:37;;;;;;;;;;;;;;;;;;6222198;28;19928;-69
2023/07/04 19:57:38;;;;;;;;;;;;;;;;;;6220407;28;20699;-70
2023/07/04 20:00:38;;;;;;;;;;;;;;;;;;6213619;28;19914;-69
2023/07/04 20:03:38;;;;;;;;;;;;;;;;;;6219938;28;19968;-70
2023/07/04 20:06:38;;;;;;;;;;;;;;;;;;6222329;28;19913;-70
2023/07/04 20:09:38;;;;;;;;;;;;;;;;;;6211227;28;19939;-69
2023/07/04 20:12:38;;;;;;;;;;;;;;;;;;6208101;28;19921;-69
2023/07/04 20:15:39;;;;;;;;;;;;;;;;;;6207991;28;19914;-69
2023/07/04 20:18:39;;;;;;;;;;;;;;;;;;6212964;28;19998;-69
2023/07/04 20:21:39;;;;;;;;;;;;;;;;;;6207768;28;19914;-69
2023/07/04 20:24:39;;;;;;;;;;;;;;;;;;6204934;28;19952;-67
2023/07/04 20:27:39;;;;;;;;;;;;;;;;;;6209116;28;20267;-68
2023/07/04 20:30:40;;;;;;;;;;;;;;;;;;6208561;28;20289;-68